Kamensk-Ural'skiy, Russia
Current Conditions -  °F | °C
As of 2:30 PM on Sunday 26 Oct 2014 (Local Time) from USSS Reporting Station
Blowing Snow Blowing Snow  
Wind Chill:   Ceiling: 6700
Heat Index: 18°   Visibility: 6mi
Dew Point: 10°   Wind: 18mph
Humidity: 73%   Direction: 290°WNW
Pressure: 30.06"   Gusts: NA
Location:  56.43°N, 61.87°E
Report Text: USSS 260930Z 29008MPS 9999 DRSN BKN067 M08/M12 Q1018 7692034026990325 NOSIG RMK QFE743
Loading
Personal Weather Stations






























Interactive Weather Map
Tropical Storm Tracking
New forecast layout! Learn more

10-Day Weather Forecast

Advertisements
Track Severe Weather on mobile